Time;durP1;ratioP1;P1;durP2;ratioP2;P2;SDS_P1;SDS_P2;PMS_P1;PMS_P2;Temp;Humidity;BMP_temperature;BMP_pressure;BME280_temperature;BME280_humidity;BME280_pressure;Samples;Min_cycle;Max_cycle;Signal;HPM_P1;HPM_P2
2022/06/06 00:01:23;;;;;;;9.30;4.80;;;;;;;15.40;62.85;100293.34;106589;1270;22796;-77
2022/06/06 00:03:55;;;;;;;10.90;5.50;;;;;;;15.36;62.90;100289.45;106662;1270;22540;-76
2022/06/06 00:06:26;;;;;;;12.90;5.60;;;;;;;15.30;63.36;100294.16;106649;1270;22572;-77
2022/06/06 00:08:59;;;;;;;9.70;4.70;;;;;;;15.22;63.49;100293.94;106596;1270;23269;-77
2022/06/06 00:11:34;;;;;;;10.50;5.20;;;;;;;15.15;63.78;100296.34;106821;1270;22544;-76
2022/06/06 00:14:07;;;;;;;10.80;4.80;;;;;;;15.09;63.77;100289.02;106693;1270;22903;-77
2022/06/06 00:16:38;;;;;;;11.70;5.00;;;;;;;15.02;63.83;100291.27;106481;1270;22618;-77
2022/06/06 00:19:09;;;;;;;11.80;5.80;;;;;;;14.95;64.18;100288.53;106594;1270;22565;-77
2022/06/06 00:21:41;;;;;;;11.30;5.40;;;;;;;14.88;64.22;100286.36;106614;1270;25379;-77
2022/06/06 00:24:13;;;;;;;11.50;5.30;;;;;;;14.83;64.21;100278.14;106595;1270;22526;-77
2022/06/06 00:26:45;;;;;;;15.90;5.30;;;;;;;14.81;64.21;100274.70;106587;1270;22546;-77
2022/06/06 00:29:19;;;;;;;11.70;5.20;;;;;;;14.78;64.24;100267.24;106733;1270;24294;-77
2022/06/06 00:34:55;;;;;;;12.80;5.30;;;;;;;14.72;64.53;100255.88;106603;1270;22548;-76
2022/06/06 00:37:31;;;;;;;12.10;5.60;;;;;;;14.66;64.82;100254.80;106566;1269;25839;-77
2022/06/06 00:40:03;;;;;;;11.20;5.40;;;;;;;14.60;64.95;100250.69;106594;1270;22566;-76
2022/06/06 00:42:38;;;;;;;12.50;5.20;;;;;;;14.54;65.06;100243.89;106624;1269;22629;-77
2022/06/06 00:45:32;;;;;;;11.50;5.10;;;;;;;14.51;65.11;100234.56;106764;1270;24237;-77
2022/06/06 00:48:22;;;;;;;12.00;5.70;;;;;;;14.46;65.02;100222.20;106693;1270;25252;-77
2022/06/06 00:51:02;;;;;;;10.10;5.00;;;;;;;14.43;65.29;100217.18;106653;1270;25323;-77
2022/06/06 00:53:39;;;;;;;12.80;4.80;;;;;;;14.40;65.44;100208.49;106722;1270;24262;-77
2022/06/06 00:56:19;;;;;;;11.00;5.30;;;;;;;14.38;65.69;100201.94;106643;1270;24296;-77
2022/06/06 00:58:54;;;;;;;12.30;5.40;;;;;;;14.37;65.64;100203.59;106594;1270;22535;-77
2022/06/06 01:01:28;;;;;;;10.80;5.10;;;;;;;14.34;65.84;100196.37;106628;1270;24237;-76
2022/06/06 01:04:02;;;;;;;10.00;4.30;;;;;;;14.33;65.92;100189.67;106789;1270;23928;-77
2022/06/06 01:06:39;;;;;;;11.90;4.70;;;;;;;14.32;66.10;100176.92;106661;1270;23215;-77
2022/06/06 01:09:11;;;;;;;10.10;4.70;;;;;;;14.31;66.05;100177.77;106755;1270;24255;-77
2022/06/06 01:11:47;;;;;;;12.60;5.10;;;;;;;14.30;66.09;100184.36;106752;1270;22553;-77
2022/06/06 01:14:23;;;;;;;10.20;4.90;;;;;;;14.29;66.00;100182.66;106692;1270;22645;-77
2022/06/06 01:17:03;;;;;;;10.00;4.40;;;;;;;14.28;66.25;100177.39;106612;1270;25251;-77
2022/06/06 01:19:55;;;;;;;10.20;4.10;;;;;;;14.29;66.11;100183.95;106793;1270;22544;-77
2022/06/06 01:23:04;;;;;;;10.70;4.60;;;;;;;14.28;66.28;100192.21;106733;1270;25933;-77
2022/06/06 01:26:02;;;;;;;9.60;4.40;;;;;;;14.28;66.38;100201.61;106632;1270;22672;-77
2022/06/06 01:28:53;;;;;;;10.90;4.40;;;;;;;14.29;66.34;100197.94;106661;1271;22710;-77
2022/06/06 01:31:31;;;;;;;9.20;4.20;;;;;;;14.31;66.57;100201.67;106583;1270;25513;-77
2022/06/06 01:34:06;;;;;;;10.60;3.80;;;;;;;14.32;66.50;100208.77;106716;1270;26533;-77
2022/06/06 01:36:41;;;;;;;11.70;4.60;;;;;;;14.33;66.38;100214.45;106699;1271;24241;-78
2022/06/06 01:39:14;;;;;;;10.80;4.50;;;;;;;14.33;66.46;100209.80;106580;1270;25522;-77
2022/06/06 01:41:53;;;;;;;11.00;4.50;;;;;;;14.32;66.64;100208.20;106704;1270;22544;-77
2022/06/06 01:44:32;;;;;;;14.10;5.30;;;;;;;14.31;66.57;100197.91;106771;1270;24228;-78
2022/06/06 01:47:08;;;;;;;9.10;4.40;;;;;;;14.33;66.45;100191.21;106753;1271;22471;-77
2022/06/06 01:49:40;;;;;;;13.00;4.40;;;;;;;14.34;66.52;100187.02;106482;1270;22480;-77
2022/06/06 01:52:16;;;;;;;10.80;4.50;;;;;;;14.34;66.48;100189.02;106726;1270;23470;-77
2022/06/06 01:54:48;;;;;;;11.60;4.80;;;;;;;14.32;66.60;100184.98;106737;1271;25255;-77
2022/06/06 01:57:19;;;;;;;9.80;4.10;;;;;;;14.30;66.60;100186.75;106669;1270;24227;-77
2022/06/06 01:59:53;;;;;;;12.20;4.10;;;;;;;14.28;66.82;100189.75;106547;1270;24243;-77
2022/06/06 02:02:25;;;;;;;10.40;4.60;;;;;;;14.28;66.87;100188.88;106722;1270;25359;-77
2022/06/06 02:04:56;;;;;;;8.00;3.70;;;;;;;14.29;66.84;100184.61;106720;1270;22552;-77
2022/06/06 02:07:27;;;;;;;11.90;4.40;;;;;;;14.32;67.03;100178.90;106714;1271;22600;-77
2022/06/06 02:09:58;;;;;;;12.50;4.70;;;;;;;14.35;66.90;100179.98;106669;1270;23949;-77
2022/06/06 02:12:30;;;;;;;13.60;5.60;;;;;;;14.37;66.97;100182.34;106658;1270;22580;-77
2022/06/06 02:15:01;;;;;;;11.40;4.80;;;;;;;14.38;67.12;100176.23;106785;1270;22531;-77
2022/06/06 02:17:36;;;;;;;11.30;5.00;;;;;;;14.40;66.81;100172.60;106707;1270;25255;-77
2022/06/06 02:20:12;;;;;;;12.80;4.80;;;;;;;14.44;66.88;100176.85;106692;1270;25269;-76
2022/06/06 02:22:44;;;;;;;13.50;5.00;;;;;;;14.48;66.85;100177.52;106727;1270;25986;-76
2022/06/06 02:25:16;;;;;;;15.00;5.40;;;;;;;14.51;66.90;100172.36;106718;1270;22546;-77
2022/06/06 02:27:49;;;;;;;10.40;4.40;;;;;;;14.53;66.88;100168.43;106649;1270;25255;-77
2022/06/06 02:30:22;;;;;;;11.70;5.00;;;;;;;14.56;66.96;100170.84;106646;1270;22549;-77
2022/06/06 02:32:54;;;;;;;9.70;4.50;;;;;;;14.60;66.90;100164.36;106688;1270;23928;-76
2022/06/06 02:35:29;;;;;;;14.90;6.00;;;;;;;14.64;66.79;100162.06;106711;1270;22688;-77
2022/06/06 02:38:01;;;;;;;10.50;4.60;;;;;;;14.67;66.62;100161.30;106978;1270;22541;-77
2022/06/06 02:40:33;;;;;;;13.10;5.30;;;;;;;14.69;66.74;100160.89;106586;1270;24401;-77
2022/06/06 02:43:04;;;;;;;13.20;4.60;;;;;;;14.72;66.59;100161.32;106612;1270;22521;-77
2022/06/06 02:45:35;;;;;;;13.30;5.80;;;;;;;14.74;66.58;100148.95;106730;1270;25249;-77
2022/06/06 02:48:08;;;;;;;10.50;4.60;;;;;;;14.78;66.49;100146.86;106769;1270;22926;-77
2022/06/06 02:50:40;;;;;;;13.20;5.80;;;;;;;14.81;66.43;100145.27;106614;1270;22550;-77
2022/06/06 02:53:11;;;;;;;12.40;5.80;;;;;;;14.83;66.48;100148.75;106623;1270;24758;-77
2022/06/06 02:55:43;;;;;;;11.90;4.80;;;;;;;14.84;66.23;100154.21;106727;1271;22683;-77
2022/06/06 02:58:15;;;;;;;14.70;5.60;;;;;;;14.84;66.35;100151.05;106730;1270;22678;-77
2022/06/06 03:00:48;;;;;;;14.70;5.40;;;;;;;14.85;66.15;100154.27;106604;1270;22682;-76
2022/06/06 03:03:19;;;;;;;16.80;5.90;;;;;;;14.86;66.18;100163.05;106619;1270;25839;-77
2022/06/06 03:06:02;;;;;;;13.40;5.70;;;;;;;14.87;66.33;100165.30;106665;1270;22540;-77
2022/06/06 03:08:48;;;;;;;12.70;5.10;;;;;;;14.88;66.33;100168.01;106882;1271;23419;-77
2022/06/06 03:11:35;;;;;;;15.00;5.50;;;;;;;14.89;66.34;100168.42;106572;1270;25938;-77
2022/06/06 03:14:30;;;;;;;14.30;5.40;;;;;;;14.90;66.22;100164.23;106758;1270;23986;-76
2022/06/06 03:20:49;;;;;;;15.90;7.20;;;;;;;14.92;66.36;100171.64;106745;1270;22543;-77
2022/06/06 03:23:39;;;;;;;17.00;7.00;;;;;;;14.92;66.39;100176.30;106638;1270;22531;-77
2022/06/06 03:26:17;;;;;;;13.30;5.70;;;;;;;14.91;66.30;100178.23;106756;1270;22478;-77
2022/06/06 03:29:03;;;;;;;14.90;6.30;;;;;;;14.91;66.25;100176.96;106709;1270;22616;-77
2022/06/06 03:31:43;;;;;;;14.60;6.20;;;;;;;14.90;66.35;100175.16;106742;1270;22561;-76
2022/06/06 03:34:21;;;;;;;14.20;6.60;;;;;;;14.90;66.20;100168.63;106760;1270;24240;-77
2022/06/06 03:37:03;;;;;;;12.20;5.70;;;;;;;14.90;66.54;100171.98;106557;1270;26703;-77
2022/06/06 03:39:41;;;;;;;13.90;6.70;;;;;;;14.90;66.40;100171.94;106850;1270;22525;-77
2022/06/06 03:42:18;;;;;;;16.40;6.00;;;;;;;14.91;66.26;100176.70;106659;1270;22726;-77
2022/06/06 03:45:03;;;;;;;13.70;6.60;;;;;;;14.94;66.35;100175.17;106672;1270;22527;-76
2022/06/06 03:47:55;;;;;;;14.70;6.50;;;;;;;14.97;66.36;100175.13;106719;1270;23038;-77
2022/06/06 03:50:39;;;;;;;14.20;5.60;;;;;;;15.00;66.35;100172.26;106596;1270;24221;-77
2022/06/06 03:53:15;;;;;;;14.90;6.80;;;;;;;15.03;66.38;100172.16;106625;1270;22541;-77
2022/06/06 03:56:00;;;;;;;13.90;6.60;;;;;;;15.08;66.36;100172.51;106599;1270;22544;-77
2022/06/06 03:58:34;;;;;;;14.60;5.60;;;;;;;15.13;66.35;100167.86;106644;1270;24272;-77
2022/06/06 04:01:09;;;;;;;15.00;6.50;;;;;;;15.19;66.57;100174.40;106769;1271;24253;-78
2022/06/06 04:03:42;;;;;;;16.50;6.70;;;;;;;15.27;66.59;100174.09;106773;1270;25251;-79
2022/06/06 04:06:14;;;;;;;15.10;6.50;;;;;;;15.35;66.69;100175.96;107124;1270;22519;-79
2022/06/06 04:08:47;;;;;;;15.70;7.40;;;;;;;15.44;66.63;100174.90;107499;1270;22612;-80
2022/06/06 04:11:34;;;;;;;15.90;7.00;;;;;;;15.52;66.89;100167.37;108582;1270;23089;-80
2022/06/06 04:14:17;;;;;;;14.40;6.30;;;;;;;15.62;66.73;100165.05;108029;1270;23005;-79
2022/06/06 04:17:03;;;;;;;13.50;6.00;;;;;;;15.72;66.52;100164.30;107637;1268;22647;-80
2022/06/06 04:19:49;;;;;;;15.30;6.90;;;;;;;15.82;66.55;100167.43;107528;1270;23726;-80
2022/06/06 04:22:32;;;;;;;14.90;6.90;;;;;;;15.90;66.41;100170.17;107512;1270;25370;-79
2022/06/06 04:25:14;;;;;;;15.70;6.70;;;;;;;16.01;66.41;100168.64;107502;1268;25474;-79
2022/06/06 04:28:03;;;;;;;14.40;6.70;;;;;;;16.12;66.47;100169.61;107423;1270;22515;-81
2022/06/06 04:30:43;;;;;;;15.10;7.10;;;;;;;16.25;66.54;100169.45;107087;1270;22477;-79
2022/06/06 04:33:19;;;;;;;14.30;7.00;;;;;;;16.36;66.38;100172.84;107312;1270;22563;-79
2022/06/06 04:36:03;;;;;;;12.90;5.60;;;;;;;16.47;66.22;100178.20;107297;1270;24731;-79
2022/06/06 04:38:42;;;;;;;14.40;6.20;;;;;;;16.58;65.91;100187.54;107170;1270;22678;-79
2022/06/06 04:41:22;;;;;;;13.90;6.30;;;;;;;16.69;65.81;100182.45;107111;1270;24287;-80
2022/06/06 04:44:08;;;;;;;16.20;7.00;;;;;;;16.78;65.75;100181.36;107160;1270;25378;-80
2022/06/06 04:46:48;;;;;;;15.40;6.80;;;;;;;16.89;65.61;100180.48;107191;1270;22591;-79
2022/06/06 04:49:21;;;;;;;14.30;6.00;;;;;;;16.98;65.39;100186.95;107086;1270;22609;-81
2022/06/06 04:51:54;;;;;;;15.40;5.70;;;;;;;17.04;65.11;100177.51;107538;1270;22562;-80
2022/06/06 04:54:27;;;;;;;14.90;5.80;;;;;;;17.09;64.65;100171.05;107667;1270;22550;-79
2022/06/06 04:57:00;;;;;;;16.80;6.20;;;;;;;17.13;64.53;100166.27;107214;1270;27560;-79
2022/06/06 04:59:35;;;;;;;14.80;6.50;;;;;;;17.19;64.58;100163.84;107179;1270;25267;-80
2022/06/06 05:02:07;;;;;;;13.10;6.40;;;;;;;17.26;64.41;100159.67;107378;1270;25359;-78
2022/06/06 05:04:38;;;;;;;15.60;6.60;;;;;;;17.30;64.28;100158.71;106902;1270;22538;-79
2022/06/06 05:07:30;;;;;;;15.00;6.50;;;;;;;17.33;64.02;100164.18;107016;1270;23225;-80
2022/06/06 05:10:27;;;;;;;13.50;5.80;;;;;;;17.37;64.13;100167.32;107615;1270;25251;-78
2022/06/06 05:13:32;;;;;;;16.70;6.90;;;;;;;17.43;63.91;100172.69;106987;1270;22702;-79
2022/06/06 05:16:25;;;;;;;12.90;6.10;;;;;;;17.50;63.86;100182.24;107058;1270;23152;-79
2022/06/06 05:19:29;;;;;;;13.70;5.20;;;;;;;17.59;63.87;100186.41;107017;1270;22453;-80
2022/06/06 05:22:17;;;;;;;17.30;6.10;;;;;;;17.66;63.48;100186.70;107169;1270;24330;-80
2022/06/06 05:25:13;;;;;;;13.40;5.90;;;;;;;17.72;63.39;100186.95;107475;1270;26550;-79
2022/06/06 05:28:10;;;;;;;12.80;5.70;;;;;;;17.76;63.14;100181.66;107073;1270;25418;-79
2022/06/06 05:30:53;;;;;;;14.80;5.90;;;;;;;17.85;63.33;100177.67;107662;1270;22545;-79
2022/06/06 05:33:31;;;;;;;13.00;5.30;;;;;;;17.95;63.05;100176.36;107265;1270;25377;-79
2022/06/06 05:36:22;;;;;;;13.40;6.80;;;;;;;18.04;63.02;100176.63;107259;1270;22529;-79
2022/06/06 05:39:10;;;;;;;13.80;5.90;;;;;;;18.14;63.09;100171.73;107326;1270;22926;-79
2022/06/06 05:41:59;;;;;;;16.60;6.10;;;;;;;18.27;62.93;100171.39;107107;1270;22476;-79
2022/06/06 05:44:41;;;;;;;13.60;6.10;;;;;;;18.37;62.49;100171.14;107318;1270;24368;-79
2022/06/06 05:47:20;;;;;;;15.40;6.20;;;;;;;18.47;62.68;100170.67;107240;1270;22537;-79
2022/06/06 05:50:04;;;;;;;15.30;6.70;;;;;;;18.62;62.37;100173.29;107076;1270;22486;-79
2022/06/06 05:52:53;;;;;;;12.90;5.30;;;;;;;18.73;62.23;100172.71;107057;1270;26518;-79
2022/06/06 05:55:42;;;;;;;13.50;5.90;;;;;;;18.86;62.15;100170.65;107253;1270;22566;-79
2022/06/06 05:58:59;;;;;;;15.40;6.40;;;;;;;18.97;61.89;100178.55;107027;1270;22692;-78
2022/06/06 06:01:48;;;;;;;13.60;5.90;;;;;;;19.07;61.47;100181.63;106554;1274;22838;-79
2022/06/06 06:04:54;;;;;;;13.70;5.90;;;;;;;19.16;61.41;100184.16;106499;1274;22593;-77
2022/06/06 06:07:36;;;;;;;16.00;5.00;;;;;;;19.28;61.28;100184.46;106492;1277;25520;-79
2022/06/06 06:10:15;;;;;;;13.00;5.40;;;;;;;19.37;61.11;100186.96;106513;1277;22540;-79
2022/06/06 06:13:18;;;;;;;12.80;5.60;;;;;;;19.49;60.89;100184.95;106718;1277;22549;-79
2022/06/06 06:15:52;;;;;;;13.40;5.40;;;;;;;19.68;60.96;100184.04;106637;1277;22541;-78
2022/06/06 06:18:30;;;;;;;14.60;5.70;;;;;;;19.83;61.09;100185.55;106701;1277;22520;-78
2022/06/06 06:21:06;;;;;;;13.50;6.20;;;;;;;20.02;60.99;100189.38;106578;1277;22599;-77
2022/06/06 06:23:42;;;;;;;16.20;6.00;;;;;;;20.21;60.52;100192.36;106364;1277;22725;-78
2022/06/06 06:26:17;;;;;;;14.00;5.80;;;;;;;20.32;60.19;100192.02;106501;1277;25918;-78
2022/06/06 06:28:51;;;;;;;15.50;4.90;;;;;;;20.39;60.07;100199.45;106431;1277;24501;-78
2022/06/06 06:31:47;;;;;;;13.00;6.00;;;;;;;20.43;60.02;100204.81;106437;1276;22567;-77
2022/06/06 06:34:30;;;;;;;13.90;5.40;;;;;;;20.49;59.97;100193.83;106482;1277;22536;-77
2022/06/06 06:37:14;;;;;;;17.60;5.30;;;;;;;20.60;59.90;100194.92;106574;1277;24239;-77
2022/06/06 06:40:07;;;;;;;12.00;4.70;;;;;;;20.69;59.83;100195.03;106503;1273;22666;-79
2022/06/06 06:42:56;;;;;;;14.00;5.50;;;;;;;20.85;59.99;100194.34;106647;1274;22665;-79
2022/06/06 06:45:38;;;;;;;14.40;5.60;;;;;;;21.00;59.41;100195.17;107091;1270;24265;-79
2022/06/06 06:48:14;;;;;;;12.10;5.30;;;;;;;21.10;59.55;100193.21;106970;1270;23066;-78
2022/06/06 06:50:57;;;;;;;11.40;4.80;;;;;;;21.19;59.40;100189.55;102995;1270;22798;-79
2022/06/06 06:53:47;;;;;;;12.50;4.50;;;;;;;21.30;59.29;100191.05;107219;1270;22619;-78
2022/06/06 06:56:32;;;;;;;12.40;5.70;;;;;;;21.40;59.21;100189.96;107323;1271;22705;-78
2022/06/06 06:59:12;;;;;;;12.20;5.20;;;;;;;21.55;59.06;100188.98;107051;1270;25573;-79
2022/06/06 07:10:49;;;;;;;10.70;4.70;;;;;;;22.16;57.99;100193.83;107063;1270;22560;-78
2022/06/06 07:13:33;;;;;;;10.00;4.60;;;;;;;22.22;57.83;100198.10;106956;1270;22754;-78
2022/06/06 07:16:20;;;;;;;10.00;4.30;;;;;;;22.29;57.89;100197.13;107232;1271;24208;-78
2022/06/06 07:18:58;;;;;;;10.60;4.10;;;;;;;22.40;57.73;100197.89;107255;1270;22603;-79
2022/06/06 07:21:31;;;;;;;11.40;4.20;;;;;;;22.47;57.64;100194.88;107367;1270;22548;-79
2022/06/06 07:24:05;;;;;;;9.50;4.20;;;;;;;22.54;57.65;100197.48;107132;1270;24294;-78
2022/06/06 07:26:41;;;;;;;13.20;5.10;;;;;;;22.59;57.04;100194.96;107339;1270;22562;-79
2022/06/06 07:29:15;;;;;;;9.60;5.00;;;;;;;22.57;56.83;100196.02;107305;1270;25317;-79
2022/06/06 07:32:07;;;;;;;11.90;4.50;;;;;;;22.56;56.96;100202.16;107233;1270;22485;-78
2022/06/06 07:35:01;;;;;;;10.30;3.90;;;;;;;22.60;56.64;100200.60;107178;1270;22930;-78
2022/06/06 07:37:52;;;;;;;10.70;4.70;;;;;;;22.59;56.18;100201.67;107363;1270;22557;-78
2022/06/06 07:40:36;;;;;;;9.50;4.20;;;;;;;22.59;56.58;100204.58;107211;1270;26086;-78
2022/06/06 07:43:28;;;;;;;11.30;4.00;;;;;;;22.64;56.55;100207.67;107314;1270;26534;-79
2022/06/06 07:46:07;;;;;;;13.70;4.00;;;;;;;22.66;55.64;100209.80;107262;1270;22828;-78
2022/06/06 07:48:56;;;;;;;9.30;4.60;;;;;;;22.62;55.76;100212.30;107182;1270;22634;-79
2022/06/06 07:51:39;;;;;;;8.20;3.50;;;;;;;22.62;55.58;100215.67;106993;1271;25890;-79
2022/06/06 07:54:22;;;;;;;11.20;3.90;;;;;;;22.62;55.48;100212.56;107371;1270;26112;-79
2022/06/06 07:57:03;;;;;;;8.20;3.90;;;;;;;22.63;55.40;100211.55;107335;1271;23757;-79
2022/06/06 07:59:46;;;;;;;15.10;4.10;;;;;;;22.66;55.38;100209.98;107104;1270;22499;-79
2022/06/06 08:02:39;;;;;;;13.80;5.40;;;;;;;22.66;55.02;100210.34;107142;1270;22556;-78
2022/06/06 08:09:14;;;;;;;10.10;4.40;;;;;;;22.62;55.14;100211.31;102608;1317;545921;-79
2022/06/06 08:12:21;;;;;;;8.80;3.50;;;;;;;22.51;54.96;100219.16;106385;1284;22568;-79
2022/06/06 08:15:08;;;;;;;11.90;3.90;;;;;;;22.34;54.96;100218.98;105928;1288;22641;-79
2022/06/06 08:17:53;;;;;;;8.40;4.10;;;;;;;22.25;55.02;100223.14;106508;1282;23993;-79
2022/06/06 08:20:29;;;;;;;10.90;4.20;;;;;;;22.14;55.14;100219.78;106201;1281;23233;-78
2022/06/06 08:23:05;;;;;;;11.10;4.10;;;;;;;22.10;55.53;100225.52;102495;1279;5356377;-78
2022/06/06 08:25:39;;;;;;;12.30;3.90;;;;;;;22.07;55.82;100224.06;106441;1279;23450;-78
2022/06/06 08:28:12;;;;;;;9.20;3.90;;;;;;;22.03;56.26;100230.48;107299;1279;22589;-79
2022/06/06 08:30:46;;;;;;;11.00;4.10;;;;;;;21.99;56.95;100237.74;107004;1279;22713;-79
2022/06/06 08:33:17;;;;;;;10.70;5.00;;;;;;;21.95;57.56;100242.34;106614;1279;22580;-80
2022/06/06 08:36:01;;;;;;;11.30;4.10;;;;;;;21.87;57.94;100246.59;106507;1279;24233;-79
2022/06/06 08:38:44;;;;;;;10.50;4.50;;;;;;;21.80;58.45;100250.33;106706;1279;24245;-78
2022/06/06 08:41:39;;;;;;;9.60;3.90;;;;;;;21.77;59.32;100251.08;106358;1279;25232;-78
2022/06/06 08:44:26;;;;;;;11.20;4.20;;;;;;;21.78;59.86;100255.90;106506;1276;23108;-79
2022/06/06 08:47:16;;;;;;;11.70;4.30;;;;;;;21.79;59.76;100255.83;106507;1276;22547;-78
2022/06/06 08:54:02;;;;;;;8.00;4.10;;;;;;;21.84;59.79;100262.61;107252;1273;22550;-79
2022/06/06 08:56:53;;;;;;;11.90;4.00;;;;;;;21.90;59.87;100260.84;107248;1273;26890;-79
2022/06/06 09:00:02;;;;;;;10.20;4.20;;;;;;;21.95;59.48;100257.58;107310;1273;22553;-78
2022/06/06 09:03:07;;;;;;;9.40;3.70;;;;;;;21.96;59.43;100261.34;107320;1273;22549;-79
2022/06/06 09:06:12;;;;;;;9.60;3.50;;;;;;;21.93;59.57;100265.75;106926;1276;22584;-79
2022/06/06 09:09:38;;;;;;;8.10;4.20;;;;;;;21.92;59.75;100267.58;106771;1278;23285;-79
2022/06/06 09:13:00;;;;;;;11.80;4.80;;;;;;;21.91;59.78;100273.16;106805;1279;22566;-79
2022/06/06 09:16:07;;;;;;;12.40;4.70;;;;;;;21.87;59.72;100276.61;106799;1278;24221;-78
2022/06/06 09:19:12;;;;;;;10.20;4.40;;;;;;;21.83;59.43;100282.19;106450;1279;23976;-78
2022/06/06 09:22:07;;;;;;;8.90;4.80;;;;;;;21.77;59.67;100282.69;106524;1277;22680;-78
2022/06/06 09:25:00;;;;;;;11.80;4.70;;;;;;;21.75;59.83;100285.05;106588;1279;24382;-79
2022/06/06 09:28:02;;;;;;;9.40;4.20;;;;;;;21.70;59.76;100285.92;106539;1277;22604;-79
2022/06/06 09:31:02;;;;;;;9.10;4.50;;;;;;;21.67;59.78;100290.33;106108;1284;22502;-79
2022/06/06 09:33:58;;;;;;;;;;;;;;;21.65;59.94;100293.98;105969;1284;23060;-79
2022/06/06 09:36:44;;;;;;;8.80;3.60;;;;;;;21.63;60.15;100290.52;105362;1290;22610;-79
2022/06/06 09:39:46;;;;;;;8.90;4.20;;;;;;;21.64;60.42;100293.18;105125;1290;22581;-78
2022/06/06 09:42:40;;;;;;;7.20;2.80;;;;;;;21.66;60.64;100290.80;105127;1287;24005;-78
2022/06/06 09:45:31;;;;;;;6.40;2.40;;;;;;;21.66;60.40;100295.92;105807;1287;22548;-78
2022/06/06 09:48:42;;;;;;;8.40;2.80;;;;;;;21.62;60.63;100293.13;105662;1287;22553;-79
2022/06/06 09:51:49;;;;;;;8.70;3.00;;;;;;;21.55;60.87;100287.69;105653;1287;22587;-78
2022/06/06 10:01:34;;;;;;;11.60;3.40;;;;;;;21.48;61.64;100278.25;104888;1293;23063;-78
2022/06/06 10:04:39;;;;;;;7.90;3.30;;;;;;;21.51;61.76;100278.39;104805;1293;24025;-79
2022/06/06 10:07:57;;;;;;;9.30;3.00;;;;;;;21.55;61.68;100271.73;104817;1291;22593;-78
2022/06/06 10:11:06;;;;;;;6.80;3.10;;;;;;;21.57;61.77;100276.68;105342;1287;23710;-80
2022/06/06 10:13:56;;;;;;;10.40;3.20;;;;;;;21.60;61.91;100274.25;106019;1282;23328;-79
2022/06/06 10:16:44;;;;;;;7.20;2.70;;;;;;;21.63;61.99;100275.76;106203;1281;23026;-78
2022/06/06 10:19:34;;;;;;;8.10;2.80;;;;;;;21.66;62.17;100279.30;106148;1281;25404;-78
2022/06/06 10:22:27;;;;;;;6.30;2.40;;;;;;;21.72;62.44;100271.08;106266;1281;22572;-79
2022/06/06 10:25:24;;;;;;;7.60;2.80;;;;;;;21.81;62.25;100269.56;106203;1281;22538;-78
2022/06/06 10:28:17;;;;;;;6.40;3.00;;;;;;;21.84;62.27;100268.16;106354;1281;22818;-79
2022/06/06 10:31:03;;;;;;;7.80;3.10;;;;;;;21.93;62.45;100273.63;106356;1281;22557;-79
2022/06/06 10:34:04;;;;;;;6.20;3.10;;;;;;;22.00;62.30;100272.38;106464;1282;23705;-79
2022/06/06 10:36:54;;;;;;;8.80;3.70;;;;;;;22.12;62.46;100269.52;106537;1281;22554;-79
2022/06/06 10:39:46;;;;;;;6.40;2.80;;;;;;;22.22;62.24;100266.80;107031;1273;24250;-79
2022/06/06 10:42:35;;;;;;;6.90;3.20;;;;;;;22.34;62.21;100275.00;106889;1273;22607;-78
2022/06/06 10:45:32;;;;;;;7.50;3.00;;;;;;;22.48;62.35;100278.52;107215;1273;23157;-79
2022/06/06 10:48:24;;;;;;;7.20;2.90;;;;;;;22.56;62.20;100276.89;107175;1273;24236;-78
2022/06/06 10:54:47;;;;;;;8.30;2.80;;;;;;;22.81;62.02;100274.83;107179;1273;22535;-78
2022/06/06 10:57:55;;;;;;;5.50;2.40;;;;;;;22.93;61.77;100264.43;107284;1273;22474;-79
2022/06/06 11:00:42;;;;;;;5.00;2.20;;;;;;;23.00;61.48;100266.58;107167;1273;24235;-78
2022/06/06 11:03:34;;;;;;;6.10;2.30;;;;;;;23.00;61.22;100267.79;107206;1273;23420;-79
2022/06/06 11:06:54;;;;;;;6.80;2.30;;;;;;;22.97;61.10;100262.69;107205;1273;22608;-79
2022/06/06 11:09:52;;;;;;;8.20;2.50;;;;;;;22.98;61.06;100261.89;107222;1273;22646;-79
2022/06/06 11:13:11;;;;;;;5.90;2.20;;;;;;;22.99;60.89;100268.05;107183;1273;23875;-79
2022/06/06 11:15:53;;;;;;;4.90;1.90;;;;;;;22.95;60.71;100270.36;106859;1277;22724;-79
2022/06/06 11:18:51;;;;;;;5.70;2.50;;;;;;;22.87;60.86;100271.08;106908;1277;22619;-79
2022/06/06 11:21:52;;;;;;;4.60;1.40;;;;;;;22.80;61.42;100272.80;106918;1278;22593;-78
2022/06/06 11:24:33;;;;;;;4.60;1.10;;;;;;;22.82;61.80;100272.48;106992;1277;22650;-79
2022/06/06 11:27:29;;;;;;;2.60;1.10;;;;;;;22.92;61.58;100277.29;106930;1278;25223;-79
2022/06/06 11:30:20;;;;;;;3.50;1.00;;;;;;;23.02;61.66;100275.05;106743;1279;24621;-79
2022/06/06 11:33:31;;;;;;;3.00;0.90;;;;;;;23.11;61.34;100276.06;106702;1281;22799;-79
2022/06/06 11:36:30;;;;;;;3.80;1.20;;;;;;;23.15;60.94;100278.08;106810;1281;23553;-79
2022/06/06 11:39:26;;;;;;;3.60;1.10;;;;;;;23.12;60.36;100279.70;106775;1281;22586;-79
2022/06/06 11:42:40;;;;;;;1.90;0.70;;;;;;;23.06;60.33;100283.09;106682;1279;22568;-79
2022/06/06 11:45:43;;;;;;;2.10;0.60;;;;;;;22.92;60.18;100284.84;106795;1281;24259;-79
2022/06/06 11:48:42;;;;;;;2.30;0.60;;;;;;;22.84;60.08;100283.65;106768;1279;24356;-79
2022/06/06 11:51:46;;;;;;;1.60;0.60;;;;;;;22.72;60.32;100288.14;106834;1277;22769;-79
2022/06/06 11:55:02;;;;;;;1.90;0.50;;;;;;;22.59;60.44;100287.96;106484;1281;24249;-79
2022/06/06 11:58:04;;;;;;;1.50;0.40;;;;;;;22.47;60.60;100286.83;106566;1281;23360;-78
2022/06/06 12:00:46;;;;;;;1.50;0.40;;;;;;;22.41;60.85;100290.16;106521;1281;22747;-79
2022/06/06 12:03:48;;;;;;;8.70;0.90;;;;;;;22.41;61.06;100292.55;106602;1281;23957;-79
2022/06/06 12:06:47;;;;;;;2.00;0.50;;;;;;;22.39;60.87;100289.50;106618;1281;22576;-78
2022/06/06 12:09:32;;;;;;;4.70;0.60;;;;;;;22.38;61.01;100288.29;106870;1278;22680;-78
2022/06/06 12:12:41;;;;;;;2.30;0.70;;;;;;;22.34;61.02;100290.98;106532;1278;22587;-79
2022/06/06 12:15:43;;;;;;;1.50;0.40;;;;;;;22.33;61.07;100294.05;106529;1278;25399;-78
2022/06/06 12:18:58;;;;;;;3.40;0.60;;;;;;;22.31;60.79;100298.38;106653;1277;23352;-79
2022/06/06 12:21:53;;;;;;;1.90;0.50;;;;;;;22.24;60.86;100298.55;106183;1281;25391;-78
2022/06/06 12:24:51;;;;;;;3.60;0.90;;;;;;;22.17;60.82;100300.29;106358;1281;24269;-80
2022/06/06 12:27:46;;;;;;;2.10;0.70;;;;;;;22.12;60.61;100302.83;106640;1281;22629;-79
2022/06/06 12:30:58;;;;;;;3.30;0.70;;;;;;;22.00;60.73;100302.11;106322;1280;22553;-79
2022/06/06 12:33:36;;;;;;;1.50;0.60;;;;;;;21.92;61.14;100302.01;106349;1281;22590;-79
2022/06/06 12:36:16;;;;;;;4.60;1.10;;;;;;;21.90;61.04;100303.48;106323;1281;22681;-79
2022/06/06 12:39:03;;;;;;;2.60;0.70;;;;;;;21.82;60.83;100302.82;106328;1281;27467;-79
2022/06/06 12:41:48;;;;;;;2.30;0.80;;;;;;;21.72;60.83;100301.31;106626;1282;22582;-79
2022/06/06 12:44:50;;;;;;;3.60;0.70;;;;;;;21.55;61.17;100301.33;107352;1284;22724;-80
2022/06/06 12:47:39;;;;;;;5.10;0.90;;;;;;;21.48;61.43;100301.39;107125;1282;22576;-79
2022/06/06 12:50:32;;;;;;;6.30;1.70;;;;;;;21.41;61.67;100297.29;106319;1284;26515;-79
2022/06/06 12:53:30;;;;;;;3.20;0.60;;;;;;;21.35;61.79;100295.55;105826;1287;24386;-79
2022/06/06 12:56:21;;;;;;;1.90;0.60;;;;;;;21.34;62.03;100296.67;105742;1287;22666;-78
2022/06/06 12:59:14;;;;;;;6.10;0.70;;;;;;;21.31;62.37;100296.42;106230;1284;22671;-79
2022/06/06 13:01:59;;;;;;;3.10;0.70;;;;;;;21.28;62.69;100299.88;106251;1281;25857;-78
2022/06/06 13:04:59;;;;;;;2.30;0.60;;;;;;;21.24;62.86;100300.59;106259;1281;23002;-79
2022/06/06 13:08:21;;;;;;;3.00;0.70;;;;;;;21.20;62.65;100302.17;106846;1277;22569;-79
2022/06/06 13:11:09;;;;;;;3.60;0.80;;;;;;;21.14;62.98;100298.39;106682;1282;22588;-80